Time;durP1;ratioP1;P1;durP2;ratioP2;P2;SDS_P1;SDS_P2;PMS_P1;PMS_P2;Temp;Humidity;BMP_temperature;BMP_pressure;BME280_temperature;BME280_humidity;BME280_pressure;Samples;Min_cycle;Max_cycle;Signal;HPM_P1;HPM_P2
2023/11/05 00:04:51;;;;;;;;;;;;;;;;;;10524022;28;20262;-76
2023/11/05 00:09:53;;;;;;;0.03;0.03;;;;;;;;;;10519546;28;19928;-75
2023/11/05 00:14:57;;;;;;;1.27;0.20;;;;;;;;;;10503823;28;20110;-76
2023/11/05 00:20:03;;;;;;;2.10;0.10;;;;;;;;;;10520694;28;20067;-76
2023/11/05 00:25:06;;;;;;;0.35;0.22;;;;;;;;;;10526117;28;20139;-76
2023/11/05 00:30:11;;;;;;;0.23;0.10;;;;;;;;;;10523063;28;20462;-76
2023/11/05 00:35:14;;;;;;;0.13;0.13;;;;;;;;;;10522796;28;20082;-76
2023/11/05 00:40:17;;;;;;;0.28;0.28;;;;;;;;;;10519452;28;20061;-76
2023/11/05 00:45:21;;;;;;;0.03;0.03;;;;;;;;;;10523589;28;20047;-76
2023/11/05 00:50:24;;;;;;;0.32;0.20;;;;;;;;;;10519143;28;20044;-75
2023/11/05 00:55:27;;;;;;;0.40;0.20;;;;;;;;;;10521900;28;20092;-76
2023/11/05 01:00:31;;;;;;;0.50;0.28;;;;;;;;;;10526021;28;20529;-76
2023/11/05 01:05:34;;;;;;;;;;;;;;;;;;10527449;28;20473;-76
2023/11/05 01:10:37;;;;;;;0.10;0.05;;;;;;;;;;10521412;28;19928;-77
2023/11/05 01:15:41;;;;;;;0.85;0.30;;;;;;;;;;10529172;28;20043;-76
2023/11/05 01:20:43;;;;;;;;;;;;;;;;;;10525048;28;20036;-76
2023/11/05 01:25:46;;;;;;;0.13;0.13;;;;;;;;;;10523190;28;19920;-76
2023/11/05 01:30:50;;;;;;;0.03;0.00;;;;;;;;;;10515568;28;20071;-77
2023/11/05 01:35:52;;;;;;;0.60;0.20;;;;;;;;;;10525170;28;20130;-76
2023/11/05 01:40:55;;;;;;;0.20;0.10;;;;;;;;;;10524192;28;20063;-79
2023/11/05 01:45:59;;;;;;;0.00;0.00;;;;;;;;;;10519045;28;20059;-77
2023/11/05 01:51:04;;;;;;;0.15;0.13;;;;;;;;;;10518635;28;20048;-76
2023/11/05 01:56:08;;;;;;;0.30;0.20;;;;;;;;;;10521804;28;20043;-76
2023/11/05 02:01:12;;;;;;;0.10;0.05;;;;;;;;;;10520971;28;20047;-76
2023/11/05 02:06:14;;;;;;;;;;;;;;;;;;10514780;28;20501;-76
2023/11/05 02:11:18;;;;;;;0.00;0.00;;;;;;;;;;10513938;28;19935;-75
2023/11/05 02:16:23;;;;;;;0.28;0.17;;;;;;;;;;10512808;28;20062;-75
2023/11/05 02:21:27;;;;;;;0.40;0.13;;;;;;;;;;10508688;28;20048;-76
2023/11/05 02:26:31;;;;;;;0.22;0.15;;;;;;;;;;10516726;28;20058;-76
2023/11/05 02:31:34;;;;;;;0.10;0.10;;;;;;;;;;10514566;28;20111;-76
2023/11/05 02:36:37;;;;;;;0.85;0.20;;;;;;;;;;10513837;28;20129;-75
2023/11/05 02:41:41;;;;;;;0.10;0.08;;;;;;;;;;10526618;28;20094;-76
2023/11/05 02:46:43;;;;;;;0.65;0.17;;;;;;;;;;10526085;28;20043;-77
2023/11/05 02:51:46;;;;;;;0.03;0.00;;;;;;;;;;10531016;28;20042;-78
2023/11/05 02:56:50;;;;;;;2.28;0.20;;;;;;;;;;10525526;28;20057;-77
2023/11/05 03:01:53;;;;;;;;;;;;;;;;;;10518952;28;20127;-78
2023/11/05 03:06:55;;;;;;;0.10;0.10;;;;;;;;;;10524100;28;19923;-77
2023/11/05 03:11:59;;;;;;;0.20;0.20;;;;;;;;;;10503200;28;20562;-77
2023/11/05 03:17:02;;;;;;;0.47;0.10;;;;;;;;;;10529214;28;20144;-76
2023/11/05 03:22:06;;;;;;;0.10;0.10;;;;;;;;;;10529003;28;20128;-77
2023/11/05 03:27:10;;;;;;;0.10;0.10;;;;;;;;;;10519817;28;20035;-77
2023/11/05 03:32:12;;;;;;;;;;;;;;;;;;10526613;28;20086;-77
2023/11/05 03:37:15;;;;;;;1.30;0.10;;;;;;;;;;10523274;28;19934;-77
2023/11/05 03:42:20;;;;;;;0.00;0.00;;;;;;;;;;10523007;28;21259;-76
2023/11/05 03:47:23;;;;;;;0.10;0.10;;;;;;;;;;10523021;28;20048;-77
2023/11/05 03:52:25;;;;;;;0.10;0.10;;;;;;;;;;10528346;28;20042;-76
2023/11/05 03:57:30;;;;;;;0.20;0.20;;;;;;;;;;10526889;28;20456;-76
2023/11/05 04:02:33;;;;;;;0.20;0.10;;;;;;;;;;10526294;28;20501;-76
2023/11/05 04:07:35;;;;;;;0.40;0.10;;;;;;;;;;10522179;28;20522;-76
2023/11/05 04:12:39;;;;;;;0.63;0.13;;;;;;;;;;10520998;28;20037;-77
2023/11/05 04:17:42;;;;;;;0.03;0.03;;;;;;;;;;10525255;28;20503;-76
2023/11/05 04:22:46;;;;;;;0.32;0.10;;;;;;;;;;10521396;28;20036;-76
2023/11/05 04:27:50;;;;;;;0.00;0.00;;;;;;;;;;10526658;28;20122;-75
2023/11/05 04:32:53;;;;;;;0.00;0.00;;;;;;;;;;10528813;28;20301;-76
2023/11/05 04:37:56;;;;;;;0.28;0.03;;;;;;;;;;10504400;28;20043;-76
2023/11/05 04:43:00;;;;;;;0.47;0.10;;;;;;;;;;10531306;28;20108;-76
2023/11/05 04:48:02;;;;;;;0.00;0.00;;;;;;;;;;10511675;28;20497;-76
2023/11/05 04:53:05;;;;;;;0.17;0.15;;;;;;;;;;10529593;28;20292;-77
2023/11/05 04:58:09;;;;;;;0.00;0.00;;;;;;;;;;10532441;28;20055;-76
2023/11/05 05:03:11;;;;;;;;;;;;;;;;;;10524993;28;20085;-77
2023/11/05 05:08:14;;;;;;;0.00;0.00;;;;;;;;;;10528807;28;19928;-77
2023/11/05 05:13:18;;;;;;;0.55;0.28;;;;;;;;;;10506563;28;20036;-77
2023/11/05 05:18:21;;;;;;;0.10;0.10;;;;;;;;;;10526271;28;20489;-76
2023/11/05 05:23:24;;;;;;;0.10;0.10;;;;;;;;;;10517974;28;20119;-77
2023/11/05 05:28:28;;;;;;;0.10;0.00;;;;;;;;;;10523082;28;20040;-77
2023/11/05 05:33:30;;;;;;;;;;;;;;;;;;10520458;28;20053;-77
2023/11/05 05:38:34;;;;;;;0.85;0.20;;;;;;;;;;10522206;28;19928;-77
2023/11/05 05:43:38;;;;;;;0.10;0.03;;;;;;;;;;10521797;28;20390;-77
2023/11/05 05:48:41;;;;;;;0.25;0.22;;;;;;;;;;10522283;28;20177;-77
2023/11/05 05:53:44;;;;;;;0.50;0.17;;;;;;;;;;10524889;28;20043;-77
2023/11/05 05:58:47;;;;;;;;;;;;;;;;;;10517278;28;20890;-78
2023/11/05 06:03:53;;;;;;;0.00;0.00;;;;;;;;;;10520859;28;19934;-77
2023/11/05 06:08:55;;;;;;;0.10;0.10;;;;;;;;;;10519871;28;20160;-78
2023/11/05 06:13:58;;;;;;;0.10;0.10;;;;;;;;;;10517069;28;20032;-78
2023/11/05 06:19:02;;;;;;;0.10;0.10;;;;;;;;;;10522665;28;20139;-78
2023/11/05 06:24:06;;;;;;;0.00;0.00;;;;;;;;;;10519355;28;20625;-78
2023/11/05 06:29:08;;;;;;;0.17;0.00;;;;;;;;;;10521149;28;20716;-76
2023/11/05 06:34:12;;;;;;;0.15;0.15;;;;;;;;;;10521324;28;20048;-78
2023/11/05 06:39:15;;;;;;;0.77;0.10;;;;;;;;;;10516643;28;20040;-77
2023/11/05 06:44:17;;;;;;;0.70;0.13;;;;;;;;;;10520933;28;20466;-78
2023/11/05 06:49:21;;;;;;;0.10;0.10;;;;;;;;;;10516433;28;20047;-78
2023/11/05 06:54:24;;;;;;;0.30;0.30;;;;;;;;;;10525950;28;20951;-77
2023/11/05 06:59:26;;;;;;;2.08;0.30;;;;;;;;;;10524480;28;20071;-78
2023/11/05 07:04:31;;;;;;;0.13;0.10;;;;;;;;;;10522912;28;20631;-77
2023/11/05 07:09:34;;;;;;;0.30;0.13;;;;;;;;;;10518116;28;20782;-78
2023/11/05 07:14:37;;;;;;;0.10;0.10;;;;;;;;;;10518350;28;20159;-78
2023/11/05 07:19:41;;;;;;;0.35;0.20;;;;;;;;;;10522365;28;20048;-79
2023/11/05 07:24:43;;;;;;;0.80;0.15;;;;;;;;;;10505312;28;20567;-79
2023/11/05 07:29:46;;;;;;;0.47;0.30;;;;;;;;;;10532008;28;20044;-78
2023/11/05 07:34:51;;;;;;;1.35;0.25;;;;;;;;;;10527978;28;20048;-77
2023/11/05 07:39:54;;;;;;;0.10;0.10;;;;;;;;;;10524706;28;20047;-78
2023/11/05 07:44:56;;;;;;;0.50;0.30;;;;;;;;;;10541690;27;20493;-78
2023/11/05 07:50:00;;;;;;;0.32;0.30;;;;;;;;;;10529646;28;20048;-78
2023/11/05 07:55:04;;;;;;;1.83;0.88;;;;;;;;;;10523849;28;20567;-77
2023/11/05 08:00:08;;;;;;;0.30;0.30;;;;;;;;;;10531837;28;20490;-77
2023/11/05 08:05:12;;;;;;;0.50;0.50;;;;;;;;;;10525562;28;20463;-77
2023/11/05 08:10:15;;;;;;;0.85;0.30;;;;;;;;;;10523330;28;20151;-79
2023/11/05 08:15:18;;;;;;;0.82;0.50;;;;;;;;;;10520861;28;20040;-77
2023/11/05 08:20:21;;;;;;;0.95;0.38;;;;;;;;;;10525257;28;20071;-77
2023/11/05 08:25:24;;;;;;;;;;;;;;;;;;10523173;28;20060;-76
2023/11/05 08:30:27;;;;;;;0.40;0.40;;;;;;;;;;10526211;28;19932;-76
2023/11/05 08:35:31;;;;;;;0.32;0.32;;;;;;;;;;10515339;28;20120;-77
2023/11/05 08:40:33;;;;;;;1.35;0.50;;;;;;;;;;10519099;28;22124;-76
2023/11/05 08:45:36;;;;;;;0.20;0.20;;;;;;;;;;10521308;28;20047;-76
2023/11/05 08:50:53;;;;;;;0.90;0.60;;;;;;;;;;10520101;28;20129;-77
2023/11/05 08:55:55;;;;;;;0.52;0.35;;;;;;;;;;10521756;28;20032;-76
2023/11/05 09:00:59;;;;;;;0.47;0.40;;;;;;;;;;10523547;28;20189;-76
2023/11/05 09:06:04;;;;;;;0.85;0.50;;;;;;;;;;10521501;28;20046;-76
2023/11/05 09:11:07;;;;;;;0.47;0.40;;;;;;;;;;10520874;28;20044;-76
2023/11/05 09:16:11;;;;;;;0.50;0.37;;;;;;;;;;10521018;28;20102;-76
2023/11/05 09:21:15;;;;;;;0.20;0.20;;;;;;;;;;10526592;28;21841;-75
2023/11/05 09:26:18;;;;;;;0.47;0.30;;;;;;;;;;10521492;28;20348;-76
2023/11/05 09:31:22;;;;;;;;;;;;;;;;;;10520309;28;20130;-77
2023/11/05 09:36:26;;;;;;;1.33;0.38;;;;;;;;;;10519715;28;19920;-77
2023/11/05 09:41:33;;;;;;;0.55;0.45;;;;;;;;;;10520006;28;20048;-76
2023/11/05 09:46:35;;;;;;;0.45;0.35;;;;;;;;;;10516781;28;20046;-78
2023/11/05 09:51:39;;;;;;;0.73;0.47;;;;;;;;;;10516709;28;20044;-76
2023/11/05 09:56:42;;;;;;;1.00;0.30;;;;;;;;;;10520103;28;20032;-75
2023/11/05 10:01:54;;;;;;;1.13;0.40;;;;;;;;;;10519986;28;20044;-77
2023/11/05 10:07:01;;;;;;;1.30;0.20;;;;;;;;;;10518421;28;21285;-75
2023/11/05 10:12:04;;;;;;;1.70;0.38;;;;;;;;;;10517847;28;20105;-76
2023/11/05 10:17:06;;;;;;;0.57;0.57;;;;;;;;;;10524773;28;20559;-75
2023/11/05 10:22:16;;;;;;;1.10;0.20;;;;;;;;;;10518419;28;20476;-75
2023/11/05 10:27:26;;;;;;;1.25;0.28;;;;;;;;;;10520246;28;20124;-75
2023/11/05 10:32:31;;;;;;;0.43;0.13;;;;;;;;;;10516449;28;20052;-76
2023/11/05 10:37:35;;;;;;;0.35;0.30;;;;;;;;;;10515059;28;20059;-74
2023/11/05 10:42:37;;;;;;;;;;;;;;;;;;10519078;28;20455;-75
2023/11/05 10:47:40;;;;;;;0.50;0.20;;;;;;;;;;10518571;28;20315;-74
2023/11/05 10:52:45;;;;;;;0.38;0.20;;;;;;;;;;10518268;28;21145;-74
2023/11/05 10:57:49;;;;;;;0.13;0.13;;;;;;;;;;10524034;28;20135;-76
2023/11/05 11:02:52;;;;;;;0.20;0.20;;;;;;;;;;10522197;28;20093;-75
2023/11/05 11:07:59;;;;;;;1.17;0.35;;;;;;;;;;10527698;28;20071;-76
2023/11/05 11:13:10;;;;;;;0.20;0.20;;;;;;;;;;10527459;28;20067;-76
2023/11/05 11:18:17;;;;;;;0.40;0.40;;;;;;;;;;10531870;28;20075;-75
2023/11/05 11:23:22;;;;;;;0.20;0.20;;;;;;;;;;10534588;28;20063;-75
2023/11/05 11:28:25;;;;;;;1.42;1.10;;;;;;;;;;10533894;28;20786;-75
2023/11/05 11:33:29;;;;;;;0.97;0.90;;;;;;;;;;10522572;28;20036;-75
2023/11/05 11:38:33;;;;;;;0.50;0.50;;;;;;;;;;10531642;28;20113;-75
2023/11/05 11:43:37;;;;;;;0.70;0.30;;;;;;;;;;10530972;28;20119;-75
2023/11/05 11:48:40;;;;;;;0.13;0.13;;;;;;;;;;10532902;28;20044;-75
2023/11/05 11:53:44;;;;;;;1.00;0.15;;;;;;;;;;10535271;28;20436;-75
2023/11/05 11:58:47;;;;;;;1.20;0.20;;;;;;;;;;10523143;28;20101;-74
2023/11/05 12:03:49;;;;;;;1.40;0.15;;;;;;;;;;10511589;28;20040;-74
2023/11/05 12:08:54;;;;;;;0.10;0.10;;;;;;;;;;10521757;28;20761;-75
2023/11/05 12:13:57;;;;;;;1.73;1.60;;;;;;;;;;10514633;28;20554;-75
2023/11/05 12:19:00;;;;;;;0.98;0.98;;;;;;;;;;10522884;28;20440;-74
2023/11/05 12:24:07;;;;;;;1.10;1.10;;;;;;;;;;10525877;28;20060;-75
2023/11/05 12:29:10;;;;;;;1.10;1.10;;;;;;;;;;10524036;28;20059;-75
2023/11/05 12:34:13;;;;;;;1.40;1.30;;;;;;;;;;10522812;28;20150;-75
2023/11/05 12:39:17;;;;;;;1.37;1.27;;;;;;;;;;10520094;28;20045;-76
2023/11/05 12:44:19;;;;;;;0.80;0.80;;;;;;;;;;10517954;28;20122;-76
2023/11/05 12:49:23;;;;;;;1.30;1.20;;;;;;;;;;10526366;28;20148;-75
2023/11/05 12:54:27;;;;;;;1.25;1.25;;;;;;;;;;10520445;28;20388;-76
2023/11/05 12:59:30;;;;;;;1.10;1.10;;;;;;;;;;10528385;28;20540;-75
2023/11/05 13:04:34;;;;;;;1.00;1.00;;;;;;;;;;10523320;28;20036;-77
2023/11/05 13:09:38;;;;;;;1.10;1.10;;;;;;;;;;10518756;28;20035;-75
2023/11/05 13:14:41;;;;;;;1.10;1.10;;;;;;;;;;10518340;28;20044;-76
2023/11/05 13:19:43;;;;;;;1.33;0.93;;;;;;;;;;10530712;28;20125;-77
2023/11/05 13:24:48;;;;;;;1.70;1.17;;;;;;;;;;10523445;28;20036;-76
2023/11/05 13:29:51;;;;;;;1.13;1.10;;;;;;;;;;10530032;28;20064;-78
2023/11/05 13:34:54;;;;;;;2.93;1.10;;;;;;;;;;10526001;28;20044;-76
2023/11/05 13:39:59;;;;;;;0.90;0.90;;;;;;;;;;10515366;28;20568;-77
2023/11/05 13:45:02;;;;;;;1.00;1.00;;;;;;;;;;10524431;28;20050;-77
2023/11/05 13:50:07;;;;;;;1.52;0.30;;;;;;;;;;10525775;28;20504;-76
2023/11/05 13:55:11;;;;;;;0.38;0.20;;;;;;;;;;10526523;28;20055;-76
2023/11/05 14:00:15;;;;;;;0.60;0.20;;;;;;;;;;10518672;28;20511;-76
2023/11/05 14:05:17;;;;;;;0.25;0.22;;;;;;;;;;10522059;28;20072;-76
2023/11/05 14:10:22;;;;;;;0.88;0.20;;;;;;;;;;10526126;28;20499;-80
2023/11/05 14:15:25;;;;;;;0.68;0.35;;;;;;;;;;10528740;28;20588;-74
2023/11/05 14:20:28;;;;;;;0.30;0.30;;;;;;;;;;10520790;28;20381;-76
2023/11/05 14:25:32;;;;;;;0.20;0.20;;;;;;;;;;10520340;28;20143;-76
2023/11/05 14:30:34;;;;;;;0.43;0.20;;;;;;;;;;10516169;28;20094;-74
2023/11/05 14:35:43;;;;;;;0.22;0.22;;;;;;;;;;10523147;28;20051;-74
2023/11/05 14:40:48;;;;;;;0.38;0.30;;;;;;;;;;10529247;28;20515;-74
2023/11/05 14:45:51;;;;;;;0.40;0.22;;;;;;;;;;10528385;28;20040;-76
2023/11/05 14:50:56;;;;;;;0.20;0.20;;;;;;;;;;10532402;28;20043;-74
2023/11/05 14:56:01;;;;;;;0.82;0.30;;;;;;;;;;10534797;28;20036;-73
2023/11/05 15:01:05;;;;;;;0.35;0.30;;;;;;;;;;10527224;28;20047;-75
2023/11/05 15:06:08;;;;;;;0.20;0.20;;;;;;;;;;10540082;28;20039;-75
2023/11/05 15:11:12;;;;;;;0.57;0.30;;;;;;;;;;10538430;28;20071;-75
2023/11/05 15:16:14;;;;;;;;;;;;;;;;;;10530139;28;20137;-75
2023/11/05 15:21:18;;;;;;;0.22;0.22;;;;;;;;;;10529588;28;19924;-75
2023/11/05 15:26:25;;;;;;;0.53;0.30;;;;;;;;;;10528996;28;20044;-74
2023/11/05 15:31:28;;;;;;;1.25;0.40;;;;;;;;;;10528023;28;20044;-75
2023/11/05 15:36:31;;;;;;;1.13;0.40;;;;;;;;;;10534707;28;20044;-74
2023/11/05 15:41:35;;;;;;;0.75;0.30;;;;;;;;;;10534503;28;20125;-75
2023/11/05 15:46:38;;;;;;;;;;;;;;;;;;10528376;28;20079;-75
2023/11/05 15:51:41;;;;;;;0.52;0.30;;;;;;;;;;10522296;28;19935;-75
2023/11/05 15:56:45;;;;;;;0.20;0.20;;;;;;;;;;10525832;28;20183;-76
2023/11/05 16:01:52;;;;;;;0.25;0.20;;;;;;;;;;10523331;28;20097;-77
2023/11/05 16:06:58;;;;;;;0.90;0.32;;;;;;;;;;10524886;28;20054;-76
2023/11/05 16:12:03;;;;;;;0.28;0.20;;;;;;;;;;10527426;28;20063;-75
2023/11/05 16:17:06;;;;;;;1.15;0.30;;;;;;;;;;10527661;28;20032;-75
2023/11/05 16:22:09;;;;;;;0.30;0.30;;;;;;;;;;10508692;28;20074;-75
2023/11/05 16:27:13;;;;;;;1.63;0.43;;;;;;;;;;10518849;28;20048;-76
2023/11/05 16:32:16;;;;;;;0.47;0.40;;;;;;;;;;10525349;28;20059;-75
2023/11/05 16:37:19;;;;;;;3.80;0.50;;;;;;;;;;10523663;28;20047;-76
2023/11/05 16:42:23;;;;;;;1.77;0.50;;;;;;;;;;10527722;28;20048;-76
2023/11/05 16:47:25;;;;;;;0.32;0.28;;;;;;;;;;10523363;28;20043;-78
2023/11/05 16:52:28;;;;;;;0.82;0.40;;;;;;;;;;10527653;28;20107;-77
2023/11/05 16:57:32;;;;;;;0.47;0.25;;;;;;;;;;10522429;28;20055;-79
2023/11/05 17:02:35;;;;;;;;;;;;;;;;;;10513185;28;20044;-77
2023/11/05 17:07:38;;;;;;;2.30;1.17;;;;;;;;;;10520514;28;20399;-76
2023/11/05 17:12:43;;;;;;;2.95;0.60;;;;;;;;;;10517828;28;20059;-77
2023/11/05 17:17:46;;;;;;;1.35;0.50;;;;;;;;;;10523676;28;20067;-76
2023/11/05 17:22:49;;;;;;;2.50;0.50;;;;;;;;;;10526100;28;20390;-78
2023/11/05 17:27:53;;;;;;;0.75;0.40;;;;;;;;;;10525638;28;20329;-76
2023/11/05 17:32:56;;;;;;;;;;;;;;;;;;10524456;28;20614;-78
2023/11/05 17:37:58;;;;;;;1.63;0.50;;;;;;;;;;10525622;28;20424;-77
2023/11/05 17:43:03;;;;;;;2.35;0.73;;;;;;;;;;10527649;28;20127;-78
2023/11/05 17:48:09;;;;;;;0.75;0.40;;;;;;;;;;10528054;28;20063;-76
2023/11/05 17:53:16;;;;;;;0.32;0.22;;;;;;;;;;10527792;28;20129;-78
2023/11/05 17:58:21;;;;;;;0.95;0.50;;;;;;;;;;10524670;28;20610;-77
2023/11/05 18:03:24;;;;;;;1.30;0.43;;;;;;;;;;10525313;28;20155;-77
2023/11/05 18:08:27;;;;;;;1.15;0.40;;;;;;;;;;10526620;28;20048;-79
2023/11/05 18:13:31;;;;;;;1.65;0.60;;;;;;;;;;10522699;28;20075;-78
2023/11/05 18:18:33;;;;;;;;;;;;;;;;;;10527742;28;20384;-78
2023/11/05 18:23:36;;;;;;;;;;;;;;;;;;10522098;28;19924;-78
2023/11/05 18:28:39;;;;;;;;;;;;;;;;;;10524171;28;19924;-78
2023/11/05 18:33:42;;;;;;;;;;;;;;;;;;10524573;28;19928;-77
2023/11/05 18:38:44;;;;;;;;;;;;;;;;;;10525077;28;20407;-77
2023/11/05 18:43:47;;;;;;;;;;;;;;;;;;10524760;28;19951;-78
2023/11/05 18:48:49;;;;;;;;;;;;;;;;;;10527578;28;19985;-77
2023/11/05 18:53:52;;;;;;;;;;;;;;;;;;10527655;28;19927;-78
2023/11/05 18:58:54;;;;;;;;;;;;;;;;;;10521501;28;20281;-77
2023/11/05 19:03:57;;;;;;;;;;;;;;;;;;10525323;28;20284;-78
2023/11/05 19:09:00;;;;;;;;;;;;;;;;;;10525179;28;19920;-80
2023/11/05 19:14:03;;;;;;;;;;;;;;;;;;10524574;28;20256;-80
2023/11/05 19:19:15;;;;;;;;;;;;;;;;;;10526820;28;19928;-79
2023/11/05 19:24:17;;;;;;;;;;;;;;;;;;10531634;28;19919;-78
2023/11/05 19:29:21;;;;;;;;;;;;;;;;;;10531372;28;19928;-78
2023/11/05 19:34:25;;;;;;;;;;;;;;;;;;10535109;28;19931;-82
2023/11/05 19:39:27;;;;;;;;;;;;;;;;;;10526318;28;19924;-81
2023/11/05 19:44:31;;;;;;;;;;;;;;;;;;10511091;28;20004;-80
2023/11/05 19:49:34;;;;;;;;;;;;;;;;;;10526998;28;20209;-80
2023/11/05 19:54:37;;;;;;;;;;;;;;;;;;10532931;28;19927;-79
2023/11/05 19:59:40;;;;;;;;;;;;;;;;;;10539297;28;20003;-77
2023/11/05 20:04:42;;;;;;;;;;;;;;;;;;10529237;28;19927;-78
2023/11/05 20:09:45;;;;;;;;;;;;;;;;;;10541343;28;20028;-78
2023/11/05 20:14:47;;;;;;;;;;;;;;;;;;10532590;28;19931;-78
2023/11/05 20:19:50;;;;;;;;;;;;;;;;;;10534605;28;19959;-80
2023/11/05 20:24:52;;;;;;;;;;;;;;;;;;10533449;28;19967;-80
2023/11/05 20:29:56;;;;;;;;;;;;;;;;;;10531743;28;19985;-79
2023/11/05 20:34:58;;;;;;;;;;;;;;;;;;10527592;28;20007;-78
2023/11/05 20:40:04;;;;;;;;;;;;;;;;;;10507480;28;19999;-79
2023/11/05 20:45:06;;;;;;;;;;;;;;;;;;10527085;28;19919;-80
2023/11/05 20:50:09;;;;;;;;;;;;;;;;;;10521602;28;19920;-79
2023/11/05 20:55:12;;;;;;;;;;;;;;;;;;10520620;28;20014;-78
2023/11/05 21:00:15;;;;;;;;;;;;;;;;;;10527428;28;19972;-79
2023/11/05 21:05:18;;;;;;;;;;;;;;;;;;10525121;28;19928;-77
2023/11/05 21:10:20;;;;;;;;;;;;;;;;;;10521210;28;19967;-79
2023/11/05 21:15:22;;;;;;;;;;;;;;;;;;10522783;28;20022;-78
2023/11/05 21:20:25;;;;;;;;;;;;;;;;;;10522702;28;19919;-79
2023/11/05 21:25:28;;;;;;;;;;;;;;;;;;10522109;28;19926;-78
2023/11/05 21:30:30;;;;;;;;;;;;;;;;;;10522390;28;19935;-78
2023/11/05 21:35:42;;;;;;;;;;;;;;;;;;10520739;28;19935;-77
2023/11/05 21:40:47;;;;;;;;;;;;;;;;;;10521058;28;20042;-78
2023/11/05 21:45:53;;;;;;;;;;;;;;;;;;10521243;28;19930;-78
2023/11/05 21:51:03;;;;;;;;;;;;;;;;;;10526767;28;19926;-78
2023/11/05 21:56:06;;;;;;;;;;;;;;;;;;10523591;28;20003;-78
2023/11/05 22:01:08;;;;;;;;;;;;;;;;;;10524849;28;19919;-79
2023/11/05 22:06:11;;;;;;;;;;;;;;;;;;10527380;28;19932;-78
2023/11/05 22:11:13;;;;;;;;;;;;;;;;;;10534142;28;19924;-78
2023/11/05 22:16:21;;;;;;;;;;;;;;;;;;10523469;28;19924;-80
2023/11/05 22:21:28;;;;;;;;;;;;;;;;;;10523952;28;20461;-81
2023/11/05 22:26:32;;;;;;;;;;;;;;;;;;10518864;28;20013;-81
2023/11/05 22:31:42;;;;;;;;;;;;;;;;;;10523838;28;19920;-81
2023/11/05 22:36:49;;;;;;;;;;;;;;;;;;10524398;28;19927;-80
2023/11/05 22:41:55;;;;;;;;;;;;;;;;;;10522211;28;19923;-80
2023/11/05 22:46:59;;;;;;;;;;;;;;;;;;10522843;28;19924;-81
2023/11/05 22:52:14;;;;;;;;;;;;;;;;;;10522575;28;19927;-83
2023/11/05 22:57:26;;;;;;;;;;;;;;;;;;10505080;28;19927;-82
2023/11/05 23:02:39;;;;;;;;;;;;;;;;;;10527066;28;20024;-82
2023/11/05 23:07:46;;;;;;;;;;;;;;;;;;10530384;28;19931;-82
2023/11/05 23:12:50;;;;;;;;;;;;;;;;;;10510374;28;19928;-78
2023/11/05 23:17:55;;;;;;;;;;;;;;;;;;10514932;28;19926;-78
2023/11/05 23:23:02;;;;;;;;;;;;;;;;;;10517622;28;19947;-78
2023/11/05 23:28:14;;;;;;;;;;;;;;;;;;10527331;28;20025;-78
2023/11/05 23:33:33;;;;;;;;;;;;;;;;;;10534781;28;20006;-79
2023/11/05 23:38:44;;;;;;;;;;;;;;;;;;10530572;28;20022;-78
2023/11/05 23:43:49;;;;;;;;;;;;;;;;;;10530527;28;19924;-80
2023/11/05 23:48:59;;;;;;;;;;;;;;;;;;10541650;27;20015;-79
2023/11/05 23:54:12;;;;;;;;;;;;;;;;;;10531482;28;19944;-78
2023/11/05 23:59:22;;;;;;;;;;;;;;;;;;10527947;28;19920;-78
